createdAt,value
2022-08-30T00:16:18.326Z,24.99
2022-08-30T00:45:09.855Z,24.96
2022-08-30T01:13:55.123Z,24.94
2022-08-30T01:42:53.506Z,24.91
2022-08-30T02:11:57.922Z,24.88
2022-08-30T02:41:03.382Z,24.86
2022-08-30T03:10:06.674Z,24.82
2022-08-30T03:39:14.397Z,24.81
2022-08-30T04:07:44.196Z,24.79
2022-08-30T04:36:49.919Z,24.75
2022-08-30T05:05:14.740Z,23.66
2022-08-30T05:33:57.539Z,23.7
2022-08-30T06:02:59.593Z,23.48
2022-08-30T06:32:02.132Z,24.12
2022-08-30T07:01:03.696Z,24.55
2022-08-30T08:05:04.237Z,25.54
2022-08-30T08:07:32.258Z,25.69
2022-08-30T08:14:31.445Z,25.33
2022-08-30T08:25:45.842Z,23.91
2022-08-30T08:54:41.495Z,23.22
2022-08-30T09:23:19.769Z,23.12
2022-08-30T09:52:06.607Z,23.1
2022-08-30T10:20:40.091Z,23.1
2022-08-30T10:49:19.186Z,23.11
2022-08-30T11:17:37.914Z,23.36
2022-08-30T11:46:15.025Z,23.44
2022-08-30T12:14:35.383Z,23.44
2022-08-30T12:43:12.188Z,23.41
2022-08-30T13:12:06.628Z,23.38
2022-08-30T13:40:43.279Z,23.8
2022-08-30T14:09:31.859Z,24
2022-08-30T14:38:19.936Z,24
2022-08-30T15:07:13.957Z,23.97
2022-08-30T15:35:39.922Z,23.97
2022-08-30T16:04:13.056Z,23.96
2022-08-30T16:32:50.968Z,23.95
2022-08-30T17:01:35.733Z,23.97
2022-08-30T17:29:49.104Z,24
2022-08-30T17:58:34.281Z,24.01
2022-08-30T18:27:19.699Z,24.02
2022-08-30T18:56:11.666Z,24
2022-08-30T19:25:07.910Z,24.03
2022-08-30T19:54:02.036Z,24.02
2022-08-30T20:22:55.397Z,24.03
2022-08-30T20:51:54.754Z,24.04
2022-08-30T21:20:17.885Z,24.04
2022-08-30T21:49:07.112Z,24.04
2022-08-30T22:17:51.135Z,24.05
2022-08-30T22:46:35.226Z,24.05
2022-08-30T23:15:25.148Z,24.05
2022-08-30T23:43:41.754Z,24.05
